createdAt,value
2022-09-20T00:00:11.064Z,14.73
2022-09-20T00:01:14.146Z,14.74
2022-09-20T00:02:11.065Z,14.72
2022-09-20T00:03:11.071Z,14.75
2022-09-20T00:04:11.061Z,14.76
2022-09-20T00:05:12.140Z,14.76
2022-09-20T00:06:12.072Z,14.73
2022-09-20T00:07:11.065Z,14.72
2022-09-20T00:08:14.071Z,14.74
2022-09-20T00:09:11.064Z,14.74
2022-09-20T00:10:11.065Z,14.74
2022-09-20T00:11:14.064Z,14.76
2022-09-20T00:12:11.063Z,14.77
2022-09-20T00:13:11.065Z,14.79
2022-09-20T00:14:12.065Z,14.78
2022-09-20T00:15:11.064Z,14.79
2022-09-20T00:16:11.156Z,14.80
2022-09-20T00:17:11.065Z,14.81
2022-09-20T00:18:11.064Z,14.83
2022-09-20T00:19:15.067Z,14.83
2022-09-20T00:20:11.065Z,14.83
2022-09-20T00:21:15.057Z,14.84
2022-09-20T00:22:11.065Z,14.82
2022-09-20T00:23:11.057Z,14.82
2022-09-20T00:24:11.059Z,14.85
2022-09-20T00:25:11.065Z,14.79
2022-09-20T00:26:11.056Z,14.76
2022-09-20T00:27:11.061Z,14.78
2022-09-20T00:28:13.065Z,14.74
2022-09-20T00:29:11.057Z,14.75
2022-09-20T00:30:11.059Z,14.76
2022-09-20T00:31:11.079Z,14.77
2022-09-20T00:32:11.081Z,14.78
2022-09-20T00:33:11.055Z,14.78
2022-09-20T00:34:15.072Z,14.76
2022-09-20T00:35:14.067Z,14.76
2022-09-20T00:36:11.059Z,14.76
2022-09-20T00:37:11.059Z,14.76
2022-09-20T00:38:11.061Z,14.75
2022-09-20T00:39:12.061Z,14.76
2022-09-20T00:40:16.142Z,14.73
2022-09-20T00:41:11.060Z,14.74
2022-09-20T00:42:15.057Z,14.76
2022-09-20T00:43:15.067Z,14.75
2022-09-20T00:44:19.066Z,14.74
2022-09-20T00:45:17.061Z,14.74
2022-09-20T00:46:21.072Z,14.73
2022-09-20T00:47:19.061Z,14.70
2022-09-20T00:48:19.061Z,14.70
2022-09-20T00:49:20.069Z,14.69
2022-09-20T00:50:19.065Z,14.70
2022-09-20T00:51:14.061Z,14.65
2022-09-20T00:52:11.056Z,14.63
2022-09-20T00:53:17.067Z,14.64
2022-09-20T00:54:15.827Z,14.64
2022-09-20T00:55:13.246Z,14.63
2022-09-20T00:56:17.060Z,14.65
2022-09-20T00:57:11.069Z,14.65
2022-09-20T00:58:11.061Z,14.66
2022-09-20T00:59:19.064Z,14.67
2022-09-20T01:00:11.062Z,14.67
2022-09-20T01:01:11.119Z,14.67
2022-09-20T01:02:21.117Z,14.66
2022-09-20T01:03:13.065Z,14.66
2022-09-20T01:04:11.069Z,14.66
2022-09-20T01:05:11.062Z,14.64
2022-09-20T01:06:11.066Z,14.64
2022-09-20T01:07:13.070Z,14.62
2022-09-20T01:08:11.062Z,14.62
2022-09-20T01:09:11.064Z,14.62
2022-09-20T01:10:11.070Z,14.61
2022-09-20T01:11:11.066Z,14.60
2022-09-20T01:12:14.065Z,14.58
2022-09-20T01:13:11.071Z,14.57
2022-09-20T01:14:13.063Z,14.54
2022-09-20T01:15:11.059Z,14.54
2022-09-20T01:16:11.116Z,14.51
2022-09-20T01:17:11.065Z,14.48
2022-09-20T01:18:11.060Z,14.46
2022-09-20T01:19:19.072Z,14.47
2022-09-20T01:20:17.064Z,14.43
2022-09-20T01:21:11.056Z,14.41
2022-09-20T01:22:21.063Z,14.38
2022-09-20T01:23:19.063Z,14.37
2022-09-20T01:24:21.060Z,14.35
2022-09-20T01:25:16.061Z,14.36
2022-09-20T01:26:21.058Z,14.33
2022-09-20T01:27:19.063Z,14.33
2022-09-20T01:28:11.062Z,14.32
2022-09-20T01:29:21.062Z,14.32
2022-09-20T01:30:15.061Z,14.33
2022-09-20T01:31:21.159Z,14.33
2022-09-20T01:32:13.057Z,14.34
2022-09-20T01:33:19.071Z,14.30
2022-09-20T01:34:13.061Z,14.30
2022-09-20T01:35:11.058Z,14.29
2022-09-20T01:36:16.060Z,14.29
2022-09-20T01:37:21.061Z,14.29
2022-09-20T01:38:19.065Z,14.26
2022-09-20T01:39:19.059Z,14.27
2022-09-20T01:40:19.095Z,14.25
2022-09-20T01:41:19.064Z,14.24
2022-09-20T01:42:12.071Z,14.22
2022-09-20T01:43:19.060Z,14.21
2022-09-20T01:44:21.058Z,14.20
2022-09-20T01:45:23.061Z,14.20
2022-09-20T01:46:19.121Z,14.19
2022-09-20T01:47:19.075Z,14.18
2022-09-20T01:48:21.065Z,14.17
2022-09-20T01:49:19.061Z,14.17
2022-09-20T01:50:19.058Z,14.15
2022-09-20T01:51:19.060Z,14.16
2022-09-20T01:52:21.072Z,14.12
2022-09-20T01:53:21.064Z,14.14
2022-09-20T01:54:21.064Z,14.12
2022-09-20T01:55:21.062Z,14.13
2022-09-20T01:56:21.064Z,14.14
2022-09-20T01:57:26.457Z,14.13
2022-09-20T01:58:21.439Z,14.12
2022-09-20T01:59:24.197Z,14.13
2022-09-20T02:00:15.064Z,14.13
2022-09-20T02:01:19.153Z,14.13
2022-09-20T02:02:19.098Z,14.11
2022-09-20T02:03:19.073Z,14.12
2022-09-20T02:04:19.063Z,14.12
2022-09-20T02:05:19.062Z,14.12
2022-09-20T02:06:19.063Z,14.10
2022-09-20T02:07:19.072Z,14.06
2022-09-20T02:08:19.064Z,14.07
2022-09-20T02:09:21.063Z,14.03
2022-09-20T02:10:21.073Z,14.03
2022-09-20T02:11:21.067Z,14.02
2022-09-20T02:12:21.063Z,13.97
2022-09-20T02:13:16.071Z,13.96
2022-09-20T02:14:19.065Z,13.96
2022-09-20T02:15:19.063Z,13.92
2022-09-20T02:16:21.154Z,13.89
2022-09-20T02:17:17.065Z,13.88
2022-09-20T02:18:21.077Z,13.91
2022-09-20T02:19:21.065Z,13.89
2022-09-20T02:20:19.067Z,13.90
2022-09-20T02:21:19.055Z,13.88
2022-09-20T02:22:21.058Z,13.84
2022-09-20T02:23:19.067Z,13.85
2022-09-20T02:24:19.063Z,13.87
2022-09-20T02:25:19.058Z,13.89
2022-09-20T02:26:19.066Z,13.89
2022-09-20T02:27:19.062Z,13.87
2022-09-20T02:28:19.076Z,13.91
2022-09-20T02:29:19.063Z,13.92
2022-09-20T02:30:19.061Z,13.93
2022-09-20T02:31:17.210Z,13.94
2022-09-20T02:32:19.070Z,13.96
2022-09-20T02:33:21.080Z,13.97
2022-09-20T02:34:19.060Z,13.93
2022-09-20T02:35:21.070Z,13.91
2022-09-20T02:36:19.064Z,13.85
2022-09-20T02:37:19.072Z,13.83
2022-09-20T02:38:19.063Z,13.82
2022-09-20T02:39:21.062Z,13.83
2022-09-20T02:40:19.160Z,13.82
2022-09-20T02:41:21.062Z,13.77
2022-09-20T02:42:19.070Z,13.80
2022-09-20T02:43:20.061Z,13.80
2022-09-20T02:44:19.061Z,13.76
2022-09-20T02:45:18.058Z,13.75
2022-09-20T02:46:21.117Z,13.79
2022-09-20T02:47:19.075Z,13.82
2022-09-20T02:48:11.064Z,13.84
2022-09-20T02:49:20.059Z,13.84
2022-09-20T02:50:19.062Z,13.82
2022-09-20T02:51:21.070Z,13.82
2022-09-20T02:52:21.065Z,13.81
2022-09-20T02:53:19.065Z,13.80
2022-09-20T02:54:21.062Z,13.81
2022-09-20T02:55:19.067Z,13.82
2022-09-20T02:56:19.065Z,13.81
2022-09-20T02:57:19.065Z,13.82
2022-09-20T02:58:19.062Z,13.83
2022-09-20T02:59:21.062Z,13.83
2022-09-20T03:00:23.065Z,13.84
2022-09-20T03:01:19.103Z,13.81
2022-09-20T03:02:19.125Z,13.79
2022-09-20T03:03:19.070Z,13.79
2022-09-20T03:04:19.063Z,13.77
2022-09-20T03:05:19.064Z,13.76
2022-09-20T03:06:21.074Z,13.72
2022-09-20T03:07:21.066Z,13.73
2022-09-20T03:08:19.063Z,13.72
2022-09-20T03:09:19.061Z,13.75
2022-09-20T03:10:19.066Z,13.76
2022-09-20T03:11:19.072Z,13.77
2022-09-20T03:12:19.068Z,13.79
2022-09-20T03:13:19.065Z,13.78
2022-09-20T03:14:19.068Z,13.78
2022-09-20T03:15:21.066Z,13.77
2022-09-20T03:16:16.136Z,13.76
2022-09-20T03:17:19.067Z,13.77
2022-09-20T03:18:15.075Z,13.76
2022-09-20T03:19:21.068Z,13.76
2022-09-20T03:20:21.066Z,13.73
2022-09-20T03:21:19.065Z,13.71
2022-09-20T03:22:21.060Z,13.69
2022-09-20T03:23:19.062Z,13.70
2022-09-20T03:24:19.058Z,13.71
2022-09-20T03:25:21.061Z,13.70
2022-09-20T03:26:21.061Z,13.71
2022-09-20T03:27:19.070Z,13.70
2022-09-20T03:28:21.060Z,13.72
2022-09-20T03:29:19.058Z,13.72
2022-09-20T03:30:19.062Z,13.73
2022-09-20T03:31:19.170Z,13.72
2022-09-20T03:32:19.059Z,13.74
2022-09-20T03:33:18.057Z,13.74
2022-09-20T03:34:19.056Z,13.73
2022-09-20T03:35:21.058Z,13.71
2022-09-20T03:36:20.067Z,13.70
2022-09-20T03:37:19.061Z,13.69
2022-09-20T03:38:21.057Z,13.65
2022-09-20T03:39:21.060Z,13.64
2022-09-20T03:40:21.118Z,13.62
2022-09-20T03:41:23.059Z,13.62
2022-09-20T03:42:15.060Z,13.60
2022-09-20T03:43:21.063Z,13.59
2022-09-20T03:44:21.059Z,13.59
2022-09-20T03:45:19.061Z,13.53
2022-09-20T03:46:18.096Z,13.55
2022-09-20T03:47:19.068Z,13.53
2022-09-20T03:48:19.063Z,13.54
2022-09-20T03:49:21.059Z,13.52
2022-09-20T03:50:21.058Z,13.54
2022-09-20T03:51:18.062Z,13.54
2022-09-20T03:52:19.068Z,13.53
2022-09-20T03:53:19.061Z,13.54
2022-09-20T03:54:19.065Z,13.53
2022-09-20T03:55:19.063Z,13.53
2022-09-20T03:56:19.063Z,13.53
2022-09-20T03:57:19.071Z,13.50
2022-09-20T03:58:19.063Z,13.53
2022-09-20T03:59:19.061Z,13.54
2022-09-20T04:00:19.064Z,13.53
2022-09-20T04:01:19.119Z,13.53
2022-09-20T04:02:21.168Z,13.54
2022-09-20T04:03:19.066Z,13.54
2022-09-20T04:04:19.062Z,13.53
2022-09-20T04:05:17.066Z,13.50
2022-09-20T04:06:19.065Z,13.48
2022-09-20T04:07:19.076Z,13.44
2022-09-20T04:08:19.064Z,13.41
2022-09-20T04:09:19.064Z,13.36
2022-09-20T04:10:21.066Z,13.32
2022-09-20T04:11:19.063Z,13.33
2022-09-20T04:12:19.071Z,13.30
2022-09-20T04:13:19.064Z,13.31
2022-09-20T04:14:16.064Z,13.29
2022-09-20T04:15:19.066Z,13.28
2022-09-20T04:16:19.119Z,13.29
2022-09-20T04:17:19.070Z,13.29
2022-09-20T04:18:21.067Z,13.30
2022-09-20T04:19:21.062Z,13.29
2022-09-20T04:20:20.064Z,13.29
2022-09-20T04:21:21.060Z,13.28
2022-09-20T04:22:11.060Z,13.28
2022-09-20T04:23:19.063Z,13.29
2022-09-20T04:24:21.056Z,13.29
2022-09-20T04:25:19.061Z,13.29
2022-09-20T04:26:11.058Z,13.29
2022-09-20T04:27:21.058Z,13.28
2022-09-20T04:28:17.056Z,13.29
2022-09-20T04:29:22.055Z,13.25
2022-09-20T04:30:17.056Z,13.23
2022-09-20T04:31:20.870Z,13.23
2022-09-20T04:32:19.119Z,13.23
2022-09-20T04:33:19.057Z,13.21
2022-09-20T04:34:19.056Z,13.17
2022-09-20T04:35:23.060Z,13.18
2022-09-20T04:36:25.073Z,13.15
2022-09-20T04:37:19.067Z,13.10
2022-09-20T04:38:16.059Z,13.08
2022-09-20T04:39:19.058Z,13.07
2022-09-20T04:40:19.116Z,13.06
2022-09-20T04:41:21.063Z,13.06
2022-09-20T04:42:19.072Z,13.05
2022-09-20T04:43:19.061Z,13.05
2022-09-20T04:44:19.060Z,13.00
2022-09-20T04:45:19.062Z,13.00
2022-09-20T04:46:21.184Z,12.99
2022-09-20T04:47:21.068Z,12.99
2022-09-20T04:48:19.061Z,12.99
2022-09-20T04:49:21.061Z,12.98
2022-09-20T04:50:19.059Z,12.96
2022-09-20T04:51:21.061Z,12.94
2022-09-20T04:52:19.064Z,12.95
2022-09-20T04:53:19.063Z,12.93
2022-09-20T04:54:19.063Z,12.93
2022-09-20T04:55:21.061Z,12.91
2022-09-20T04:56:20.063Z,12.89
2022-09-20T04:57:19.061Z,12.90
2022-09-20T04:58:19.069Z,12.88
2022-09-20T04:59:21.061Z,12.86
2022-09-20T05:00:18.063Z,12.86
2022-09-20T05:01:19.133Z,12.86
2022-09-20T05:02:19.106Z,12.86
2022-09-20T05:03:19.070Z,12.84
2022-09-20T05:04:19.064Z,12.83
2022-09-20T05:05:19.066Z,12.81
2022-09-20T05:06:19.061Z,12.81
2022-09-20T05:07:21.058Z,12.79
2022-09-20T05:08:19.063Z,12.78
2022-09-20T05:09:21.071Z,12.78
2022-09-20T05:10:19.064Z,12.75
2022-09-20T05:11:19.061Z,12.74
2022-09-20T05:12:19.059Z,12.71
2022-09-20T05:13:19.062Z,12.71
2022-09-20T05:14:19.159Z,12.69
2022-09-20T05:15:19.067Z,12.66
2022-09-20T05:16:17.136Z,12.60
2022-09-20T05:17:19.060Z,12.61
2022-09-20T05:18:19.063Z,12.59
2022-09-20T05:19:21.071Z,12.56
2022-09-20T05:20:21.065Z,12.54
2022-09-20T05:21:19.058Z,12.55
2022-09-20T05:22:19.061Z,12.56
2022-09-20T05:23:19.061Z,12.56
2022-09-20T05:24:20.074Z,12.54
2022-09-20T05:25:19.061Z,12.54
2022-09-20T05:26:19.059Z,12.55
2022-09-20T05:27:19.059Z,12.55
2022-09-20T05:28:19.059Z,12.54
2022-09-20T05:29:18.069Z,12.54
2022-09-20T05:30:23.061Z,12.53
2022-09-20T05:31:19.134Z,12.53
2022-09-20T05:32:19.067Z,12.53
2022-09-20T05:33:19.062Z,12.50
2022-09-20T05:34:19.063Z,12.49
2022-09-20T05:35:18.062Z,12.47
2022-09-20T05:36:21.063Z,12.46
2022-09-20T05:37:19.060Z,12.47
2022-09-20T05:38:19.118Z,12.45
2022-09-20T05:39:19.065Z,12.44
2022-09-20T05:40:19.114Z,12.40
2022-09-20T05:41:20.062Z,12.41
2022-09-20T05:42:19.061Z,12.41
2022-09-20T05:43:18.058Z,12.41
2022-09-20T05:44:19.062Z,12.38
2022-09-20T05:45:19.069Z,12.37
2022-09-20T05:46:21.063Z,12.38
2022-09-20T05:47:18.063Z,12.37
2022-09-20T05:48:17.062Z,12.39
2022-09-20T05:49:21.065Z,12.39
2022-09-20T05:50:19.065Z,12.37
2022-09-20T05:51:19.065Z,12.38
2022-09-20T05:52:19.061Z,12.35
2022-09-20T05:53:21.060Z,12.37
2022-09-20T05:54:19.065Z,12.37
2022-09-20T05:55:19.067Z,12.35
2022-09-20T05:56:19.076Z,12.36
2022-09-20T05:57:21.065Z,12.37
2022-09-20T05:58:21.063Z,12.38
2022-09-20T05:59:19.060Z,12.38
2022-09-20T06:00:20.065Z,12.41
2022-09-20T06:01:19.160Z,12.40
2022-09-20T06:02:19.112Z,12.41
2022-09-20T06:03:21.065Z,12.38
2022-09-20T06:04:17.063Z,12.35
2022-09-20T06:05:19.066Z,12.34
2022-09-20T06:06:19.069Z,12.34
2022-09-20T06:07:19.073Z,12.31
2022-09-20T06:08:21.067Z,12.33
2022-09-20T06:09:23.063Z,12.31
2022-09-20T06:10:19.062Z,12.29
2022-09-20T06:11:19.064Z,12.31
2022-09-20T06:12:19.072Z,12.32
2022-09-20T06:13:20.066Z,12.34
2022-09-20T06:14:19.064Z,12.34
2022-09-20T06:15:21.062Z,12.34
2022-09-20T06:16:18.142Z,12.35
2022-09-20T06:17:19.074Z,12.34
2022-09-20T06:18:19.070Z,12.35
2022-09-20T06:19:23.067Z,12.34
2022-09-20T06:20:21.066Z,12.34
2022-09-20T06:21:19.052Z,12.28
2022-09-20T06:22:19.059Z,12.26
2022-09-20T06:23:11.057Z,12.25
2022-09-20T06:24:21.057Z,12.23
2022-09-20T06:25:19.054Z,12.24
2022-09-20T06:26:16.052Z,12.25
2022-09-20T06:27:17.059Z,12.21
2022-09-20T06:28:19.057Z,12.21
2022-09-20T06:29:13.057Z,12.20
2022-09-20T06:30:18.056Z,12.21
2022-09-20T06:31:12.153Z,12.23
2022-09-20T06:32:11.065Z,12.25
2022-09-20T06:33:18.058Z,12.25
2022-09-20T06:34:14.053Z,12.26
2022-09-20T06:35:11.057Z,12.24
2022-09-20T06:36:23.058Z,12.25
2022-09-20T06:37:23.055Z,12.22
2022-09-20T06:38:23.054Z,12.24
2022-09-20T06:39:25.057Z,12.25
2022-09-20T06:40:23.085Z,12.25
2022-09-20T06:41:15.059Z,12.28
2022-09-20T06:42:11.059Z,12.30
2022-09-20T06:43:11.057Z,12.29
2022-09-20T06:44:11.057Z,12.31
2022-09-20T06:45:11.066Z,12.34
2022-09-20T06:46:11.093Z,12.34
2022-09-20T06:47:12.059Z,12.33
2022-09-20T06:48:11.065Z,12.27
2022-09-20T06:49:13.060Z,12.30
2022-09-20T06:50:17.055Z,12.33
2022-09-20T06:51:11.066Z,12.36
2022-09-20T06:52:17.059Z,12.38
2022-09-20T06:53:15.056Z,12.40
2022-09-20T06:54:16.059Z,12.41
2022-09-20T06:55:20.067Z,12.46
2022-09-20T06:56:20.059Z,12.48
2022-09-20T06:57:11.057Z,12.49
2022-09-20T06:58:11.062Z,12.52
2022-09-20T06:59:14.069Z,12.53
2022-09-20T07:00:12.060Z,12.56
2022-09-20T07:01:11.124Z,12.58
2022-09-20T07:02:11.141Z,12.63
2022-09-20T07:03:11.060Z,12.66
2022-09-20T07:04:11.063Z,12.66
2022-09-20T07:05:17.065Z,12.72
2022-09-20T07:06:11.068Z,12.76
2022-09-20T07:07:15.058Z,12.81
2022-09-20T07:08:11.065Z,12.87
2022-09-20T07:09:12.071Z,12.89
2022-09-20T07:10:11.061Z,12.96
2022-09-20T07:11:13.060Z,13.01
2022-09-20T07:12:11.063Z,13.04
2022-09-20T07:13:11.061Z,13.05
2022-09-20T07:14:11.060Z,13.13
2022-09-20T07:15:11.061Z,13.22
2022-09-20T07:16:12.119Z,13.31
2022-09-20T07:17:11.061Z,13.38
2022-09-20T07:18:11.065Z,13.44
2022-09-20T07:19:11.069Z,13.49
2022-09-20T07:20:11.062Z,13.60
2022-09-20T07:21:14.053Z,13.68
2022-09-20T07:22:11.063Z,13.73
2022-09-20T07:23:11.056Z,13.74
2022-09-20T07:24:11.052Z,13.81
2022-09-20T07:25:11.075Z,13.88
2022-09-20T07:26:19.055Z,13.93
2022-09-20T07:27:11.058Z,13.99
2022-09-20T07:28:11.052Z,14.06
2022-09-20T07:29:11.057Z,14.11
2022-09-20T07:30:11.055Z,14.16
2022-09-20T07:31:11.054Z,14.24
2022-09-20T07:32:11.055Z,14.32
2022-09-20T07:33:11.057Z,14.38
2022-09-20T07:34:11.053Z,14.37
2022-09-20T07:35:11.055Z,14.41
2022-09-20T07:36:11.063Z,14.48
2022-09-20T07:37:11.054Z,14.51
2022-09-20T07:38:11.058Z,14.52
2022-09-20T07:39:11.065Z,14.53
2022-09-20T07:40:11.080Z,14.54
2022-09-20T07:41:11.058Z,14.59
2022-09-20T07:42:11.064Z,14.62
2022-09-20T07:43:11.056Z,14.63
2022-09-20T07:44:15.056Z,14.68
2022-09-20T07:45:11.063Z,14.75
2022-09-20T07:46:11.086Z,14.78
2022-09-20T07:47:11.056Z,14.77
2022-09-20T07:48:11.056Z,14.83
2022-09-20T07:49:11.059Z,14.88
2022-09-20T07:50:11.057Z,14.93
2022-09-20T07:51:11.061Z,14.98
2022-09-20T07:52:11.057Z,14.99
2022-09-20T07:53:11.059Z,15.03
2022-09-20T07:54:11.072Z,15.05
2022-09-20T07:55:11.059Z,15.10
2022-09-20T07:56:15.059Z,15.13
2022-09-20T07:57:11.058Z,15.16
2022-09-20T07:58:11.066Z,15.18
2022-09-20T07:59:11.060Z,15.26
2022-09-20T08:00:11.060Z,15.25
2022-09-20T08:01:11.129Z,15.32
2022-09-20T08:02:15.099Z,15.37
2022-09-20T08:03:11.056Z,15.36
2022-09-20T08:04:11.058Z,15.38
2022-09-20T08:05:11.060Z,15.40
2022-09-20T08:06:11.058Z,15.44
2022-09-20T08:07:11.060Z,15.47
2022-09-20T08:08:11.067Z,15.46
2022-09-20T08:09:11.426Z,15.47
2022-09-20T08:10:11.061Z,15.50
2022-09-20T08:11:11.070Z,15.51
2022-09-20T08:14:15.070Z,15.56
2022-09-20T08:15:11.994Z,15.57
2022-09-20T08:16:11.126Z,15.58
2022-09-20T08:17:11.061Z,15.61
2022-09-20T08:18:11.061Z,15.65
2022-09-20T08:19:14.065Z,15.69
2022-09-20T08:20:11.064Z,15.72
2022-09-20T08:21:11.067Z,15.78
2022-09-20T08:22:11.056Z,15.77
2022-09-20T08:23:22.419Z,15.73
2022-09-20T08:24:13.094Z,15.81
2022-09-20T08:25:11.060Z,15.87
2022-09-20T08:26:11.059Z,15.94
2022-09-20T08:27:11.058Z,15.95
2022-09-20T08:28:11.059Z,16.06
2022-09-20T08:29:11.057Z,16.10
2022-09-20T08:30:11.059Z,16.18
2022-09-20T08:31:11.059Z,16.26
2022-09-20T08:32:11.057Z,16.26
2022-09-20T08:33:11.060Z,16.35
2022-09-20T08:34:11.067Z,16.40
2022-09-20T08:35:11.058Z,16.43
2022-09-20T08:36:13.061Z,16.56
2022-09-20T08:37:11.071Z,16.66
2022-09-20T08:40:14.095Z,16.86
2022-09-20T08:41:15.068Z,16.91
2022-09-20T08:42:19.062Z,16.97
2022-09-20T08:43:11.056Z,16.98
2022-09-20T08:44:21.069Z,17.01
2022-09-20T08:45:23.265Z,16.99
2022-09-20T08:46:16.125Z,16.98
2022-09-20T08:47:19.062Z,17.01
2022-09-20T08:48:16.065Z,17.01
2022-09-20T08:49:16.064Z,17.03
2022-09-20T08:50:17.251Z,16.96
2022-09-20T08:51:22.664Z,16.95
2022-09-20T08:52:21.057Z,16.93
2022-09-20T08:53:13.068Z,16.95
2022-09-20T08:54:13.065Z,16.95
2022-09-20T08:55:15.070Z,16.92
2022-09-20T08:56:11.069Z,16.92
2022-09-20T08:57:16.063Z,16.95
2022-09-20T08:58:11.080Z,16.97
2022-09-20T08:59:15.062Z,16.97
2022-09-20T09:00:19.182Z,17.00
2022-09-20T09:01:14.151Z,17.05
2022-09-20T09:02:18.120Z,17.08
2022-09-20T09:03:14.062Z,17.09
2022-09-20T09:04:14.060Z,17.10
2022-09-20T09:05:19.072Z,17.12
2022-09-20T09:06:14.228Z,17.10
2022-09-20T09:07:17.352Z,17.19
2022-09-20T09:08:15.066Z,17.23
2022-09-20T09:09:17.072Z,17.30
2022-09-20T09:10:11.065Z,17.36
2022-09-20T09:11:16.063Z,17.41
2022-09-20T09:12:19.066Z,17.41
2022-09-20T09:13:17.074Z,17.47
2022-09-20T09:14:22.065Z,17.49
2022-09-20T09:15:19.063Z,17.42
2022-09-20T09:16:15.119Z,17.43
2022-09-20T09:17:13.141Z,17.47
2022-09-20T09:18:13.066Z,17.48
2022-09-20T09:19:19.064Z,17.50
2022-09-20T09:20:18.082Z,17.46
2022-09-20T09:21:15.060Z,17.50
2022-09-20T09:22:11.067Z,17.52
2022-09-20T09:23:15.055Z,17.47
2022-09-20T09:24:16.061Z,17.54
2022-09-20T09:25:19.067Z,17.58
2022-09-20T09:26:15.060Z,17.56
2022-09-20T09:27:18.055Z,17.61
2022-09-20T09:28:15.060Z,17.64
2022-09-20T09:29:16.067Z,17.64
2022-09-20T09:30:19.057Z,17.59
2022-09-20T09:31:19.121Z,17.56
2022-09-20T09:32:19.059Z,17.58
2022-09-20T09:33:19.065Z,17.60
2022-09-20T09:34:19.059Z,17.59
2022-09-20T09:35:21.057Z,17.59
2022-09-20T09:36:14.058Z,17.52
2022-09-20T09:37:23.268Z,17.45
2022-09-20T09:38:21.131Z,17.47
2022-09-20T09:39:19.071Z,17.48
2022-09-20T09:40:16.117Z,17.47
2022-09-20T09:41:19.059Z,17.45
2022-09-20T09:42:19.060Z,17.45
2022-09-20T09:43:19.072Z,17.45
2022-09-20T09:44:22.060Z,17.43
2022-09-20T09:45:18.062Z,17.41
2022-09-20T09:46:18.137Z,17.46
2022-09-20T09:47:19.060Z,17.47
2022-09-20T09:48:21.070Z,17.49
2022-09-20T09:49:17.195Z,17.50
2022-09-20T09:50:19.064Z,17.47
2022-09-20T09:51:14.058Z,17.52
2022-09-20T09:52:17.064Z,17.53
2022-09-20T09:53:19.063Z,17.59
2022-09-20T09:54:17.061Z,17.53
2022-09-20T09:55:13.059Z,17.58
2022-09-20T09:56:19.070Z,17.64
2022-09-20T09:57:19.063Z,17.63
2022-09-20T09:58:21.062Z,17.68
2022-09-20T09:59:21.062Z,17.73
2022-09-20T10:00:21.488Z,17.69
2022-09-20T10:01:21.100Z,17.72
2022-09-20T10:02:19.143Z,17.78
2022-09-20T10:03:21.065Z,17.87
2022-09-20T10:04:21.061Z,17.86
2022-09-20T10:05:21.059Z,17.88
2022-09-20T10:06:19.065Z,17.90
2022-09-20T10:07:18.065Z,17.86
2022-09-20T10:08:19.066Z,17.93
2022-09-20T10:09:19.066Z,17.96
2022-09-20T10:10:21.064Z,18.03
2022-09-20T10:11:21.066Z,18.05
2022-09-20T10:12:21.064Z,18.06
2022-09-20T10:13:19.100Z,18.07
2022-09-20T10:14:19.104Z,18.09
2022-09-20T10:15:19.066Z,18.10
2022-09-20T10:16:19.131Z,18.07
2022-09-20T10:17:21.066Z,18.10
2022-09-20T10:18:22.074Z,18.15
2022-09-20T10:19:22.826Z,18.17
2022-09-20T10:20:19.066Z,18.20
2022-09-20T10:21:19.057Z,18.20
2022-09-20T10:22:19.058Z,18.16
2022-09-20T10:23:51.542Z,18.21
2022-09-20T10:24:21.077Z,18.27
2022-09-20T10:25:21.060Z,18.27
2022-09-20T10:26:19.057Z,18.23
2022-09-20T10:27:21.061Z,18.24
2022-09-20T10:28:19.057Z,18.30
2022-09-20T10:29:19.071Z,18.32
2022-09-20T10:30:19.061Z,18.34
2022-09-20T10:31:23.469Z,18.36
2022-09-20T10:32:23.087Z,18.42
2022-09-20T10:33:21.057Z,18.49
2022-09-20T10:34:19.067Z,18.46
2022-09-20T10:35:19.059Z,18.53
2022-09-20T10:36:21.056Z,18.53
2022-09-20T10:37:19.062Z,18.54
2022-09-20T10:38:17.061Z,18.58
2022-09-20T10:39:23.063Z,18.65
2022-09-20T10:40:21.107Z,18.66
2022-09-20T10:41:21.058Z,18.70
2022-09-20T10:42:23.056Z,18.60
2022-09-20T10:43:22.061Z,18.60
2022-09-20T10:44:23.064Z,18.65
2022-09-20T10:45:50.816Z,18.65
2022-09-20T10:46:32.240Z,18.68
2022-09-20T10:47:19.145Z,18.71
2022-09-20T10:48:21.059Z,18.69
2022-09-20T10:49:19.059Z,18.69
2022-09-20T10:50:19.060Z,18.70
2022-09-20T10:51:19.071Z,18.73
2022-09-20T10:52:19.061Z,18.66
2022-09-20T10:53:21.061Z,18.72
2022-09-20T10:54:21.063Z,18.81
2022-09-20T10:55:19.062Z,18.87
2022-09-20T10:56:19.070Z,18.88
2022-09-20T10:57:21.064Z,18.83
2022-09-20T10:58:19.061Z,18.76
2022-09-20T10:59:19.061Z,18.72
2022-09-20T11:00:19.080Z,18.79
2022-09-20T11:01:21.098Z,18.92
2022-09-20T11:02:19.158Z,19.04
2022-09-20T11:03:21.061Z,19.10
2022-09-20T11:04:19.063Z,19.10
2022-09-20T11:05:19.070Z,19.16
2022-09-20T11:06:21.067Z,19.09
2022-09-20T11:07:18.073Z,19.15
2022-09-20T11:08:16.065Z,19.20
2022-09-20T11:09:15.078Z,19.28
2022-09-20T11:10:16.064Z,19.33
2022-09-20T11:11:16.075Z,19.41
2022-09-20T11:12:19.064Z,19.45
2022-09-20T11:13:19.061Z,19.44
2022-09-20T11:14:18.065Z,19.42
2022-09-20T11:15:21.074Z,19.36
2022-09-20T11:16:19.118Z,19.23
2022-09-20T11:17:23.063Z,19.27
2022-09-20T11:18:19.065Z,19.24
2022-09-20T11:19:19.069Z,19.22
2022-09-20T11:20:17.069Z,19.20
2022-09-20T11:21:19.061Z,19.29
2022-09-20T11:22:19.056Z,19.29
2022-09-20T11:23:20.057Z,19.22
2022-09-20T11:24:19.060Z,19.25
2022-09-20T11:25:20.396Z,19.22
2022-09-20T11:26:19.143Z,19.22
2022-09-20T11:27:20.056Z,19.21
2022-09-20T11:28:20.062Z,19.20
2022-09-20T11:29:21.061Z,19.30
2022-09-20T11:30:16.069Z,19.33
2022-09-20T11:31:19.122Z,19.42
2022-09-20T11:32:18.058Z,19.44
2022-09-20T11:33:17.063Z,19.48
2022-09-20T11:34:20.067Z,19.55
2022-09-20T11:35:23.062Z,19.62
2022-09-20T11:36:19.058Z,19.66
2022-09-20T11:37:11.059Z,19.70
2022-09-20T11:38:19.070Z,19.75
2022-09-20T11:39:19.061Z,19.85
2022-09-20T11:40:22.074Z,19.98
2022-09-20T11:41:20.058Z,20.07
2022-09-20T11:42:16.061Z,20.15
2022-09-20T11:43:11.086Z,20.20
2022-09-20T11:44:15.059Z,20.28
2022-09-20T11:45:13.063Z,20.28
2022-09-20T11:46:13.146Z,20.29
2022-09-20T11:47:42.796Z,20.21
2022-09-20T11:48:22.106Z,20.29
2022-09-20T11:49:20.060Z,20.22
2022-09-20T11:50:19.063Z,20.26
2022-09-20T11:51:21.063Z,20.22
2022-09-20T11:52:21.065Z,20.23
2022-09-20T11:53:19.076Z,20.24
2022-09-20T11:54:19.064Z,20.28
2022-09-20T11:55:20.062Z,20.30
2022-09-20T11:56:19.067Z,20.28
2022-09-20T11:57:14.068Z,20.26
2022-09-20T11:58:12.075Z,20.28
2022-09-20T11:59:19.063Z,20.35
2022-09-20T12:00:11.067Z,20.43
2022-09-20T12:01:14.072Z,20.48
2022-09-20T12:02:19.165Z,20.49
2022-09-20T12:03:19.104Z,20.55
2022-09-20T12:04:32.430Z,20.53
2022-09-20T12:05:21.084Z,20.58
2022-09-20T12:06:19.078Z,20.59
2022-09-20T12:07:17.989Z,20.63
2022-09-20T12:08:19.066Z,20.76
2022-09-20T12:09:19.068Z,20.84
2022-09-20T12:10:20.068Z,20.88
2022-09-20T12:11:11.078Z,20.94
2022-09-20T12:12:19.065Z,20.98
2022-09-20T12:13:21.068Z,21.01
2022-09-20T12:14:19.067Z,21.05
2022-09-20T12:15:19.080Z,21.07
2022-09-20T12:16:17.213Z,21.03
2022-09-20T12:17:19.067Z,21.02
2022-09-20T12:18:20.070Z,20.96
2022-09-20T12:19:14.071Z,20.84
2022-09-20T12:20:19.367Z,20.82
2022-09-20T12:21:17.060Z,20.83
2022-09-20T12:22:19.055Z,20.82
2022-09-20T12:23:19.062Z,20.90
2022-09-20T12:24:18.066Z,20.96
2022-09-20T12:25:19.059Z,21.03
2022-09-20T12:26:18.058Z,21.02
2022-09-20T12:27:19.059Z,21.07
2022-09-20T12:28:15.061Z,21.11
2022-09-20T12:29:19.060Z,21.12
2022-09-20T12:30:19.061Z,21.14
2022-09-20T12:31:19.246Z,21.14
2022-09-20T12:32:19.062Z,21.18
2022-09-20T12:33:19.060Z,21.17
2022-09-20T12:34:19.058Z,21.17
2022-09-20T12:35:19.055Z,21.12
2022-09-20T12:36:15.089Z,21.11
2022-09-20T12:37:17.061Z,21.09
2022-09-20T12:38:21.061Z,21.12
2022-09-20T12:39:22.432Z,21.06
2022-09-20T12:40:18.121Z,21.05
2022-09-20T12:41:16.060Z,21.08
2022-09-20T12:42:19.070Z,21.12
2022-09-20T12:43:19.063Z,21.11
2022-09-20T12:44:19.061Z,21.11
2022-09-20T12:45:18.061Z,21.06
2022-09-20T12:46:19.106Z,21.07
2022-09-20T12:47:21.067Z,21.09
2022-09-20T12:48:18.060Z,21.09
2022-09-20T12:49:21.059Z,21.14
2022-09-20T12:50:17.066Z,21.17
2022-09-20T12:51:25.076Z,21.07
2022-09-20T12:52:23.076Z,21.04
2022-09-20T12:53:15.072Z,21.07
2022-09-20T12:54:12.065Z,21.05
2022-09-20T12:55:11.359Z,21.03
2022-09-20T12:56:16.071Z,21.01